createdAt,value
2023-11-01T00:00:25.273Z,94865.47
2023-11-01T00:02:52.049Z,94866.94
2023-11-01T00:05:18.770Z,94871.03
2023-11-01T00:07:45.477Z,94866.34
2023-11-01T00:10:12.207Z,94865.69
2023-11-01T00:12:38.864Z,94869.78
2023-11-01T00:15:05.881Z,94859.44
2023-11-01T00:17:32.719Z,94847.16
2023-11-01T00:19:59.451Z,94839.34
2023-11-01T00:22:26.201Z,94836.69
2023-11-01T00:24:52.894Z,94837.16
2023-11-01T00:27:19.620Z,94834.69
2023-11-01T00:29:46.462Z,94828.88
2023-11-01T00:32:13.169Z,94823.38
2023-11-01T00:34:40.246Z,94829.72
2023-11-01T00:37:06.944Z,94832.16
2023-11-01T00:39:33.650Z,94824.13
2023-11-01T00:42:00.361Z,94822.72
2023-11-01T00:44:27.075Z,94823.06
2023-11-01T00:46:53.834Z,94817.44
2023-11-01T00:49:20.539Z,94807.72
2023-11-01T00:51:47.270Z,94798.56
2023-11-01T00:54:13.997Z,94800.97
2023-11-01T00:56:41.219Z,94806.56
2023-11-01T00:59:07.920Z,94795.06
2023-11-01T01:01:34.663Z,94799.09
2023-11-01T01:04:02.407Z,94786.00
2023-11-01T01:06:29.197Z,94790.28
2023-11-01T01:08:56.167Z,94790.66
2023-11-01T01:11:23.017Z,94790.22
2023-11-01T01:13:49.727Z,94787.16
2023-11-01T01:16:16.446Z,94784.22
2023-11-01T01:18:43.232Z,94777.91
2023-11-01T01:21:10.228Z,94764.00
2023-11-01T01:23:36.924Z,94758.25
2023-11-01T01:26:03.754Z,94765.34
2023-11-01T01:28:30.427Z,94758.91
2023-11-01T01:30:57.076Z,94754.00
2023-11-01T01:33:23.826Z,94761.88
2023-11-01T01:35:50.788Z,94751.88
2023-11-01T01:38:17.516Z,94749.63
2023-11-01T01:40:44.249Z,94747.72
2023-11-01T01:43:18.648Z,94749.97
2023-11-01T01:45:46.608Z,94744.41
2023-11-01T01:48:13.801Z,94744.41
2023-11-01T01:50:40.754Z,94750.19
2023-11-01T01:53:07.763Z,94746.06
2023-11-01T01:55:34.663Z,94743.44
2023-11-01T01:58:01.585Z,94743.97
2023-11-01T02:00:30.123Z,94736.91
2023-11-01T02:02:57.685Z,94736.63
2023-11-01T02:05:24.431Z,94736.63
2023-11-01T02:07:51.189Z,94742.69
2023-11-01T02:10:18.126Z,94730.00
2023-11-01T02:12:44.805Z,94724.81
2023-11-01T02:15:11.532Z,94717.94
2023-11-01T02:17:38.412Z,94710.13
2023-11-01T02:20:09.222Z,94706.13
2023-11-01T02:22:35.935Z,94704.47
2023-11-01T02:25:02.612Z,94691.31
2023-11-01T02:27:29.418Z,94690.06
2023-11-01T02:29:56.224Z,94688.19
2023-11-01T02:32:26.207Z,94680.78
2023-11-01T02:34:53.038Z,94675.06
2023-11-01T02:37:19.753Z,94672.19
2023-11-01T02:39:46.420Z,94667.81
2023-11-01T02:42:13.144Z,94666.22
2023-11-01T02:44:39.837Z,94673.66
2023-11-01T02:47:06.668Z,94659.06
2023-11-01T02:49:33.354Z,94661.75
2023-11-01T02:51:59.994Z,94658.09
2023-11-01T02:54:26.689Z,94655.78
2023-11-01T02:56:57.753Z,94650.84
2023-11-01T02:59:24.859Z,94652.44
2023-11-01T03:01:51.568Z,94650.03
2023-11-01T03:04:18.303Z,94656.69
2023-11-01T03:06:44.968Z,94651.38
2023-11-01T03:09:11.616Z,94655.34
2023-11-01T03:11:41.333Z,94648.81
2023-11-01T03:14:08.241Z,94656.78
2023-11-01T03:16:34.966Z,94643.53
2023-11-01T03:19:01.772Z,94637.13
2023-11-01T03:21:28.433Z,94634.09
2023-11-01T03:23:55.157Z,94644.38
2023-11-01T03:26:21.850Z,94646.66
2023-11-01T03:28:48.529Z,94638.00
2023-11-01T03:31:15.317Z,94637.03
2023-11-01T03:33:41.976Z,94632.06
2023-11-01T03:36:08.725Z,94618.66
2023-11-01T03:38:35.441Z,94599.13
2023-11-01T03:41:04.008Z,94599.34
2023-11-01T03:43:30.780Z,94598.56
2023-11-01T03:45:57.459Z,94598.91
2023-11-01T03:48:24.340Z,94592.53
2023-11-01T03:50:52.181Z,94585.56
2023-11-01T03:53:18.927Z,94586.53
2023-11-01T03:55:45.695Z,94591.88
2023-11-01T03:58:12.540Z,94601.06
2023-11-01T04:00:39.199Z,94594.34
2023-11-01T04:03:06.004Z,94605.88
2023-11-01T04:05:32.810Z,94599.47
2023-11-01T04:07:59.493Z,94592.28
2023-11-01T04:10:26.152Z,94584.66
2023-11-01T04:13:13.429Z,94594.56
2023-11-01T04:15:42.636Z,94586.69
2023-11-01T04:18:09.549Z,94587.09
2023-11-01T04:20:36.298Z,94592.44
2023-11-01T04:23:02.956Z,94589.84
2023-11-01T04:25:29.801Z,94593.97
2023-11-01T04:27:57.518Z,94599.53
2023-11-01T04:30:24.217Z,94595.53
2023-11-01T04:32:51.008Z,94594.13
2023-11-01T04:35:17.889Z,94603.72
2023-11-01T04:37:45.043Z,94600.09
2023-11-01T04:40:13.920Z,94593.03
2023-11-01T04:42:42.665Z,94583.81
2023-11-01T04:45:11.108Z,94574.53
2023-11-01T04:47:39.115Z,94576.88
2023-11-01T04:50:07.306Z,94568.44
2023-11-01T04:52:33.985Z,94558.34
2023-11-01T04:55:00.659Z,94561.78
2023-11-01T04:57:27.311Z,94554.69
2023-11-01T04:59:54.002Z,94549.66
2023-11-01T05:02:20.671Z,94549.38
2023-11-01T05:04:47.374Z,94547.03
2023-11-01T05:07:14.202Z,94553.13
2023-11-01T05:09:41.031Z,94553.44
2023-11-01T05:12:08.024Z,94538.41
2023-11-01T05:14:34.974Z,94544.84
2023-11-01T05:17:01.674Z,94538.13
2023-11-01T05:19:28.302Z,94545.91
2023-11-01T05:21:54.969Z,94540.66
2023-11-01T05:24:21.622Z,94546.00
2023-11-01T05:26:48.326Z,94546.94
2023-11-01T05:29:15.113Z,94550.06
2023-11-01T05:31:41.815Z,94548.03
2023-11-01T05:34:08.492Z,94533.84
2023-11-01T05:36:35.264Z,94529.91
2023-11-01T05:39:02.449Z,94539.91
2023-11-01T05:41:29.160Z,94538.09
2023-11-01T05:43:55.830Z,94536.56
2023-11-01T05:46:22.644Z,94533.28
2023-11-01T05:48:49.352Z,94533.03
2023-11-01T05:51:16.042Z,94530.34
2023-11-01T05:53:42.759Z,94534.81
2023-11-01T05:56:10.652Z,94520.78
2023-11-01T05:58:37.928Z,94521.72
2023-11-01T06:01:05.069Z,94510.28
2023-11-01T06:03:31.961Z,94516.72
2023-11-01T06:05:59.563Z,94515.16
2023-11-01T06:08:26.746Z,94506.09
2023-11-01T06:10:53.667Z,94509.19
2023-11-01T06:13:20.340Z,94512.53
2023-11-01T06:15:46.995Z,94512.69
2023-11-01T06:18:13.708Z,94509.53
2023-11-01T06:20:40.430Z,94511.56
2023-11-01T06:23:08.843Z,94510.34
2023-11-01T06:25:36.056Z,94506.84
2023-11-01T06:28:02.811Z,94499.84
2023-11-01T06:30:29.530Z,94504.19
2023-11-01T06:32:56.524Z,94497.50
2023-11-01T06:35:23.309Z,94499.66
2023-11-01T06:37:50.072Z,94492.28
2023-11-01T06:40:16.823Z,94496.94
2023-11-01T06:42:43.522Z,94497.16
2023-11-01T06:45:10.575Z,94493.97
2023-11-01T06:47:37.313Z,94497.47
2023-11-01T06:50:04.146Z,94496.38
2023-11-01T06:52:30.821Z,94495.66
2023-11-01T06:54:57.560Z,94498.84
2023-11-01T06:57:24.325Z,94496.66
2023-11-01T06:59:51.057Z,94498.06
2023-11-01T07:02:17.727Z,94505.03
2023-11-01T07:04:44.405Z,94502.22
2023-11-01T07:07:13.650Z,94506.69
2023-11-01T07:09:40.929Z,94514.63
2023-11-01T07:12:07.825Z,94510.56
2023-11-01T07:14:34.511Z,94509.88
2023-11-01T07:17:01.189Z,94511.34
2023-11-01T07:19:27.850Z,94507.06
2023-11-01T07:21:54.504Z,94504.97
2023-11-01T07:24:21.180Z,94502.69
2023-11-01T07:26:47.898Z,94505.63
2023-11-01T07:29:14.553Z,94507.22
2023-11-01T07:31:41.324Z,94508.91
2023-11-01T07:34:08.005Z,94510.28
2023-11-01T07:36:34.883Z,94510.63
2023-11-01T07:39:01.601Z,94500.16
2023-11-01T07:41:28.287Z,94510.25
2023-11-01T07:43:54.976Z,94508.81
2023-11-01T07:46:21.695Z,94504.72
2023-11-01T07:48:48.455Z,94491.28
2023-11-01T07:51:15.179Z,94496.91
2023-11-01T07:53:41.925Z,94494.06
2023-11-01T07:56:08.749Z,94492.22
2023-11-01T07:58:35.544Z,94492.03
2023-11-01T08:01:02.241Z,94495.94
2023-11-01T08:03:29.063Z,94498.47
2023-11-01T08:05:56.058Z,94494.44
2023-11-01T08:08:22.909Z,94485.78
2023-11-01T08:10:49.625Z,94487.78
2023-11-01T08:13:16.353Z,94487.56
2023-11-01T08:15:43.251Z,94486.34
2023-11-01T08:18:11.079Z,94490.53
2023-11-01T08:20:38.230Z,94490.41
2023-11-01T08:23:05.064Z,94492.38
2023-11-01T08:25:31.733Z,94480.13
2023-11-01T08:27:58.443Z,94483.44
2023-11-01T08:30:25.307Z,94484.97
2023-11-01T08:32:52.183Z,94479.63
2023-11-01T08:35:18.932Z,94480.50
2023-11-01T08:37:45.667Z,94484.09
2023-11-01T08:40:12.881Z,94475.56
2023-11-01T08:42:39.619Z,94477.66
2023-11-01T08:45:06.849Z,94486.88
2023-11-01T08:47:40.667Z,94484.47
2023-11-01T08:50:08.381Z,94485.63
2023-11-01T08:52:35.048Z,94479.97
2023-11-01T08:55:02.067Z,94488.63
2023-11-01T08:57:28.946Z,94481.97
2023-11-01T08:59:56.840Z,94486.78
2023-11-01T09:02:23.721Z,94481.88
2023-11-01T09:04:50.417Z,94479.16
2023-11-01T09:07:17.089Z,94478.31
2023-11-01T09:09:43.830Z,94474.69
2023-11-01T09:12:10.534Z,94471.00
2023-11-01T09:14:38.280Z,94470.66
2023-11-01T09:17:05.117Z,94471.22
2023-11-01T09:19:31.773Z,94472.56
2023-11-01T09:21:58.579Z,94474.47
2023-11-01T09:24:25.277Z,94480.50
2023-11-01T09:26:51.954Z,94486.31
2023-11-01T09:29:18.642Z,94482.28
2023-11-01T09:31:45.468Z,94484.47
2023-11-01T09:34:12.432Z,94480.47
2023-11-01T09:36:42.034Z,94480.72
2023-11-01T09:39:08.790Z,94480.69
2023-11-01T09:41:45.655Z,94478.81
2023-11-01T09:44:17.085Z,94478.66
2023-11-01T09:46:44.639Z,94480.34
2023-11-01T09:49:12.781Z,94473.34
2023-11-01T09:51:39.734Z,94481.53
2023-11-01T09:54:06.637Z,94477.56
2023-11-01T09:56:34.203Z,94479.66
2023-11-01T09:59:01.707Z,94470.06
2023-11-01T10:01:28.490Z,94463.66
2023-11-01T10:03:59.397Z,94462.97
2023-11-01T10:06:28.552Z,94447.91
2023-11-01T10:08:56.579Z,94451.97
2023-11-01T10:11:24.255Z,94452.34
2023-11-01T10:13:51.392Z,94450.53
2023-11-01T10:16:18.370Z,94448.16
2023-11-01T10:18:45.094Z,94448.16
2023-11-01T10:21:11.863Z,94445.75
2023-11-01T10:23:38.779Z,94446.31
2023-11-01T10:26:05.511Z,94440.25
2023-11-01T10:28:40.531Z,94433.34
2023-11-01T10:31:07.337Z,94440.03
2023-11-01T10:33:34.666Z,94436.97
2023-11-01T10:36:02.986Z,94421.47
2023-11-01T10:38:30.250Z,94414.03
2023-11-01T10:41:01.969Z,94399.22
2023-11-01T10:43:29.993Z,94398.97
2023-11-01T10:46:01.734Z,94395.81
2023-11-01T10:48:29.751Z,94388.09
2023-11-01T10:50:58.536Z,94394.38
2023-11-01T10:53:26.274Z,94394.38
2023-11-01T10:55:54.697Z,94382.47
2023-11-01T10:58:24.500Z,94394.00
2023-11-01T11:01:09.357Z,94389.63
2023-11-01T11:03:48.153Z,94389.06
2023-11-01T11:06:15.156Z,94397.81
2023-11-01T11:08:42.344Z,94404.41
2023-11-01T11:11:18.847Z,94396.94
2023-11-01T11:13:46.616Z,94403.81
2023-11-01T11:16:13.480Z,94387.78
2023-11-01T11:18:44.571Z,94377.44
2023-11-01T11:21:46.870Z,94376.31
2023-11-01T11:24:32.487Z,94368.84
2023-11-01T11:26:59.261Z,94364.25
2023-11-01T11:29:45.807Z,94359.00
2023-11-01T11:32:17.092Z,94347.06
2023-11-01T11:34:46.730Z,94347.47
2023-11-01T11:37:13.823Z,94334.34
2023-11-01T11:40:02.603Z,94340.72
2023-11-01T11:42:48.981Z,94350.53
2023-11-01T11:45:29.205Z,94344.19
2023-11-01T11:47:56.551Z,94334.75
2023-11-01T11:50:23.334Z,94329.19
2023-11-01T11:52:50.046Z,94315.16
2023-11-01T11:55:16.738Z,94321.78
2023-11-01T11:57:43.866Z,94313.88
2023-11-01T12:00:11.010Z,94315.53
2023-11-01T12:02:38.278Z,94329.28
2023-11-01T12:05:05.596Z,94334.41
2023-11-01T12:07:32.486Z,94317.41
2023-11-01T12:09:59.364Z,94314.78
2023-11-01T12:12:26.114Z,94312.91
2023-11-01T12:15:01.527Z,94323.28
2023-11-01T12:17:29.508Z,94320.75
2023-11-01T12:19:57.719Z,94333.69
2023-11-01T12:22:25.060Z,94325.50
2023-11-01T12:24:52.403Z,94316.38
2023-11-01T12:27:28.944Z,94316.88
2023-11-01T12:29:57.159Z,94319.81
2023-11-01T12:32:23.987Z,94317.72
2023-11-01T12:34:50.758Z,94322.22
2023-11-01T12:37:25.588Z,94332.50
2023-11-01T12:40:05.426Z,94322.28
2023-11-01T12:42:34.457Z,94336.44
2023-11-01T12:45:01.574Z,94327.59
2023-11-01T12:47:39.162Z,94329.63
2023-11-01T12:50:06.532Z,94330.19
2023-11-01T12:52:33.356Z,94317.03
2023-11-01T12:55:00.085Z,94329.13
2023-11-01T12:57:27.028Z,94313.88
2023-11-01T12:59:53.784Z,94311.09
2023-11-01T13:02:20.649Z,94314.06
2023-11-01T13:04:47.308Z,94316.81
2023-11-01T13:07:14.060Z,94310.84
2023-11-01T13:10:41.677Z,94293.69
2023-11-01T13:13:08.429Z,94294.41
2023-11-01T13:15:35.484Z,94284.88
2023-11-01T13:18:02.406Z,94289.78
2023-11-01T13:20:29.511Z,94277.44
2023-11-01T13:22:56.269Z,94281.78
2023-11-01T13:25:23.028Z,94281.81
2023-11-01T13:27:49.820Z,94276.47
2023-11-01T13:30:16.690Z,94269.59
2023-11-01T13:32:43.610Z,94275.47
2023-11-01T13:35:10.488Z,94279.72
2023-11-01T13:37:37.144Z,94285.00
2023-11-01T13:40:04.102Z,94279.16
2023-11-01T13:42:30.818Z,94292.16
2023-11-01T13:44:57.580Z,94291.13
2023-11-01T13:47:26.119Z,94301.38
2023-11-01T13:49:53.673Z,94297.75
2023-11-01T13:52:20.418Z,94307.34
2023-11-01T13:54:47.147Z,94308.09
2023-11-01T13:57:13.908Z,94318.69
2023-11-01T13:59:40.801Z,94326.56
2023-11-01T14:02:07.711Z,94329.28
2023-11-01T14:04:34.690Z,94331.41
2023-11-01T14:07:01.571Z,94339.50
2023-11-01T14:09:28.233Z,94342.03
2023-11-01T14:11:55.005Z,94343.91
2023-11-01T14:14:21.740Z,94337.50
2023-11-01T14:16:49.057Z,94333.50
2023-11-01T14:19:15.874Z,94342.16
2023-11-01T14:21:42.647Z,94347.31
2023-11-01T14:24:09.837Z,94328.50
2023-11-01T14:26:36.631Z,94334.97
2023-11-01T14:29:03.438Z,94326.50
2023-11-01T14:31:30.197Z,94335.84
2023-11-01T14:33:56.998Z,94347.66
2023-11-01T14:36:23.745Z,94344.50
2023-11-01T14:38:50.446Z,94348.88
2023-11-01T14:41:17.216Z,94344.38
2023-11-01T14:43:43.880Z,94355.69
2023-11-01T14:46:10.801Z,94354.53
2023-11-01T14:48:37.622Z,94356.88
2023-11-01T14:51:06.600Z,94353.31
2023-11-01T14:53:33.558Z,94346.19
2023-11-01T14:56:00.390Z,94358.66
2023-11-01T14:58:27.155Z,94353.75
2023-11-01T15:00:53.999Z,94345.81
2023-11-01T15:03:20.851Z,94347.38
2023-11-01T15:05:48.030Z,94338.31
2023-11-01T15:08:14.871Z,94343.91
2023-11-01T15:10:42.620Z,94342.88
2023-11-01T15:13:10.641Z,94346.78
2023-11-01T15:15:39.771Z,94360.63
2023-11-01T15:18:07.003Z,94360.50
2023-11-01T15:20:33.711Z,94355.69
2023-11-01T15:23:01.013Z,94365.34
2023-11-01T15:25:27.761Z,94366.63
2023-11-01T15:27:54.559Z,94352.25
2023-11-01T15:30:23.431Z,94368.47
2023-11-01T15:32:50.473Z,94361.34
2023-11-01T15:35:17.410Z,94381.97
2023-11-01T15:37:44.143Z,94390.06
2023-11-01T15:40:10.911Z,94383.38
2023-11-01T15:42:37.766Z,94373.03
2023-11-01T15:45:05.100Z,94362.16
2023-11-01T15:47:31.922Z,94367.81
2023-11-01T15:49:58.986Z,94351.28
2023-11-01T15:52:25.748Z,94359.84
2023-11-01T15:54:52.961Z,94353.69
2023-11-01T15:57:20.828Z,94341.75
2023-11-01T15:59:48.618Z,94330.44
2023-11-01T16:02:15.374Z,94337.47
2023-11-01T16:04:42.240Z,94351.03
2023-11-01T16:07:09.613Z,94360.50
2023-11-01T16:09:36.512Z,94352.34
2023-11-01T16:12:06.608Z,94346.31
2023-11-01T16:14:33.650Z,94322.06
2023-11-01T16:17:00.894Z,94334.88
2023-11-01T16:19:27.682Z,94324.22
2023-11-01T16:21:54.438Z,94330.25
2023-11-01T16:24:21.237Z,94364.78
2023-11-01T16:26:47.977Z,94365.63
2023-11-01T16:29:15.107Z,94371.59
2023-11-01T16:31:43.420Z,94364.09
2023-11-01T16:34:10.535Z,94359.34
2023-11-01T16:36:37.319Z,94367.75
2023-11-01T16:39:04.311Z,94356.97
2023-11-01T16:41:31.243Z,94361.72
2023-11-01T16:43:57.949Z,94365.47
2023-11-01T16:46:24.737Z,94365.03
2023-11-01T16:48:51.475Z,94366.38
2023-11-01T16:51:18.443Z,94354.00
2023-11-01T16:53:45.350Z,94360.88
2023-11-01T16:56:12.228Z,94359.91
2023-11-01T16:58:38.902Z,94346.06
2023-11-01T17:01:05.574Z,94352.22
2023-11-01T17:03:32.825Z,94355.41
2023-11-01T17:05:59.720Z,94361.94
2023-11-01T17:08:26.589Z,94357.16
2023-11-01T17:10:53.233Z,94373.81
2023-11-01T17:13:19.934Z,94376.50
2023-11-01T17:15:46.629Z,94387.72
2023-11-01T17:18:15.624Z,94384.75
2023-11-01T17:20:42.332Z,94385.34
2023-11-01T17:23:09.999Z,94371.41
2023-11-01T17:25:45.946Z,94363.75
2023-11-01T17:28:27.679Z,94359.38
2023-11-01T17:30:54.754Z,94350.34
2023-11-01T17:33:30.271Z,94346.59
2023-11-01T17:35:57.059Z,94330.66
2023-11-01T17:38:49.805Z,94323.31
2023-11-01T17:41:44.442Z,94325.06
2023-11-01T17:44:11.217Z,94325.75
2023-11-01T17:46:38.032Z,94328.75
2023-11-01T17:49:06.829Z,94331.28
2023-11-01T17:51:34.289Z,94318.28
2023-11-01T17:54:01.644Z,94322.72
2023-11-01T17:56:28.551Z,94306.03
2023-11-01T17:58:57.217Z,94314.91
2023-11-01T18:01:25.181Z,94306.81
2023-11-01T18:03:52.860Z,94305.25
2023-11-01T18:06:22.843Z,94299.81
2023-11-01T18:08:50.259Z,94286.94
2023-11-01T18:11:18.162Z,94286.38
2023-11-01T18:13:45.571Z,94276.63
2023-11-01T18:16:14.048Z,94272.50
2023-11-01T18:18:49.489Z,94278.09
2023-11-01T18:21:23.144Z,94273.09
2023-11-01T18:23:54.256Z,94269.13
2023-11-01T18:26:21.298Z,94285.22
2023-11-01T18:28:50.915Z,94271.50
2023-11-01T18:31:23.313Z,94269.34
2023-11-01T18:34:05.302Z,94276.38
2023-11-01T18:36:40.835Z,94258.97
2023-11-01T18:39:09.188Z,94267.16
2023-11-01T18:41:38.301Z,94256.81
2023-11-01T18:44:28.293Z,94254.31
2023-11-01T18:46:56.998Z,94247.13
2023-11-01T18:49:29.614Z,94246.03
2023-11-01T18:51:58.434Z,94241.16
2023-11-01T18:54:37.246Z,94242.06
2023-11-01T18:57:13.312Z,94247.94
2023-11-01T18:59:39.988Z,94241.47
2023-11-01T19:02:10.768Z,94235.34
2023-11-01T19:04:37.709Z,94236.25
2023-11-01T19:07:05.195Z,94232.63
2023-11-01T19:09:31.857Z,94237.91
2023-11-01T19:11:58.528Z,94232.63
2023-11-01T19:14:26.613Z,94235.81
2023-11-01T19:16:53.263Z,94232.94
2023-11-01T19:19:19.937Z,94242.44
2023-11-01T19:21:46.665Z,94229.56
2023-11-01T19:24:13.390Z,94229.56
2023-11-01T19:26:40.104Z,94234.34
2023-11-01T19:29:06.821Z,94228.47
2023-11-01T19:31:33.479Z,94227.81
2023-11-01T19:34:00.266Z,94221.03
2023-11-01T19:36:27.014Z,94217.00
2023-11-01T19:38:53.934Z,94201.94
2023-11-01T19:41:20.622Z,94205.75
2023-11-01T19:43:47.293Z,94201.56
2023-11-01T19:46:14.390Z,94194.41
2023-11-01T19:48:41.121Z,94201.94
2023-11-01T19:51:07.851Z,94197.81
2023-11-01T19:53:34.686Z,94198.03
2023-11-01T19:56:01.354Z,94192.72
2023-11-01T19:58:28.060Z,94197.63
2023-11-01T20:00:54.784Z,94191.38
2023-11-01T20:03:21.634Z,94172.97
2023-11-01T20:05:48.417Z,94162.00
2023-11-01T20:08:15.097Z,94159.69
2023-11-01T20:10:41.809Z,94163.88
2023-11-01T20:13:17.749Z,94156.53
2023-11-01T20:15:44.466Z,94147.25
2023-11-01T20:18:11.222Z,94145.31
2023-11-01T20:20:37.996Z,94147.88
2023-11-01T20:23:04.658Z,94143.78
2023-11-01T20:25:31.353Z,94139.91
2023-11-01T20:27:59.165Z,94131.19
2023-11-01T20:30:25.913Z,94121.59
2023-11-01T20:32:52.698Z,94119.41
2023-11-01T20:35:19.406Z,94115.06
2023-11-01T20:37:46.153Z,94111.06
2023-11-01T20:40:12.829Z,94114.50
2023-11-01T20:42:39.553Z,94102.44
2023-11-01T20:45:08.015Z,94104.53
2023-11-01T20:47:34.926Z,94089.84
2023-11-01T20:50:01.650Z,94086.13
2023-11-01T20:52:28.405Z,94079.66
2023-11-01T20:54:55.596Z,94072.66
2023-11-01T20:57:25.953Z,94073.22
2023-11-01T20:59:52.715Z,94078.91
2023-11-01T21:02:19.624Z,94070.06
2023-11-01T21:04:46.330Z,94059.19
2023-11-01T21:07:13.324Z,94061.53
2023-11-01T21:09:39.981Z,94055.69
2023-11-01T21:12:07.016Z,94052.34
2023-11-01T21:14:33.824Z,94045.72
2023-11-01T21:17:00.816Z,94044.31
2023-11-01T21:19:27.659Z,94040.22
2023-11-01T21:21:54.499Z,94035.94
2023-11-01T21:24:22.499Z,94023.38
2023-11-01T21:26:49.454Z,94010.69
2023-11-01T21:29:16.200Z,94005.84
2023-11-01T21:31:43.006Z,94001.53
2023-11-01T21:34:10.551Z,93991.25
2023-11-01T21:36:37.374Z,93984.81
2023-11-01T21:39:06.046Z,93974.94
2023-11-01T21:41:32.916Z,93965.22
2023-11-01T21:44:00.047Z,93963.56
2023-11-01T21:46:29.883Z,93956.75
2023-11-01T21:48:57.453Z,93947.66
2023-11-01T21:51:27.307Z,93938.28
2023-11-01T21:53:54.117Z,93929.00
2023-11-01T21:56:24.244Z,93916.03
2023-11-01T21:59:09.501Z,93912.50
2023-11-01T22:01:36.193Z,93900.53
2023-11-01T22:04:21.651Z,93897.47
2023-11-01T22:06:49.651Z,93885.25
2023-11-01T22:09:18.330Z,93882.47
2023-11-01T22:11:50.736Z,93882.25
2023-11-01T22:14:28.020Z,93888.94
2023-11-01T22:16:54.755Z,93895.56
2023-11-01T22:19:33.809Z,93896.75
2023-11-01T22:22:06.479Z,93905.69
2023-11-01T22:24:36.633Z,93913.66
2023-11-01T22:27:10.652Z,93918.63
2023-11-01T22:29:47.562Z,93913.50
2023-11-01T22:32:20.528Z,93905.63
2023-11-01T22:34:48.871Z,93898.06
2023-11-01T22:37:21.510Z,93893.63
2023-11-01T22:39:49.975Z,93891.22
2023-11-01T22:42:19.762Z,93879.50
2023-11-01T22:44:46.540Z,93876.47
2023-11-01T22:47:14.380Z,93878.22
2023-11-01T22:49:41.692Z,93870.38
2023-11-01T22:52:08.479Z,93854.28
2023-11-01T22:54:35.366Z,93842.44
2023-11-01T22:57:02.588Z,93843.16
2023-11-01T22:59:29.429Z,93833.91
2023-11-01T23:01:56.540Z,93826.25
2023-11-01T23:04:24.146Z,93829.34
2023-11-01T23:06:50.861Z,93820.06
2023-11-01T23:09:17.824Z,93812.13
2023-11-01T23:11:44.572Z,93815.59
2023-11-01T23:14:11.274Z,93800.81
2023-11-01T23:16:40.947Z,93790.50
2023-11-01T23:19:09.504Z,93801.28
2023-11-01T23:21:36.837Z,93794.06
2023-11-01T23:24:11.992Z,93779.53
2023-11-01T23:26:50.671Z,93774.31
2023-11-01T23:29:19.256Z,93778.19
2023-11-01T23:31:49.854Z,93784.88
2023-11-01T23:34:49.841Z,93779.31
2023-11-01T23:37:35.359Z,93764.63
2023-11-01T23:40:15.842Z,93750.97
2023-11-01T23:42:47.402Z,93735.84
2023-11-01T23:45:35.966Z,93727.03
2023-11-01T23:48:06.951Z,93719.84
2023-11-01T23:50:40.195Z,93702.81
2023-11-01T23:53:09.159Z,93703.28
2023-11-01T23:55:35.876Z,93683.72
2023-11-01T23:58:03.729Z,93659.63
